createdAt,value
2018-12-31T00:02:20.533Z,68.99
2018-12-31T00:04:54.154Z,68.96
2018-12-31T00:07:27.752Z,69.11
2018-12-31T00:10:01.444Z,69.15
2018-12-31T00:12:34.970Z,69.18
2018-12-31T00:15:08.563Z,69.13
2018-12-31T00:17:42.140Z,69.08
2018-12-31T00:20:15.796Z,69.07
2018-12-31T00:22:49.416Z,69.04
2018-12-31T00:25:22.978Z,69.00
2018-12-31T00:27:56.491Z,69.07
2018-12-31T00:30:30.101Z,68.90
2018-12-31T00:33:03.618Z,69.03
2018-12-31T00:35:37.266Z,69.04
2018-12-31T00:38:10.773Z,69.16
2018-12-31T00:40:44.401Z,69.23
2018-12-31T00:43:17.924Z,69.15
2018-12-31T00:45:51.582Z,69.11
2018-12-31T00:48:25.139Z,69.24
2018-12-31T00:50:58.777Z,69.17
2018-12-31T00:53:32.349Z,69.10
2018-12-31T00:56:05.891Z,69.12
2018-12-31T00:58:39.488Z,69.19
2018-12-31T01:01:13.040Z,69.17
2018-12-31T01:03:46.554Z,69.38
2018-12-31T01:06:20.108Z,69.16
2018-12-31T01:08:53.627Z,69.20
2018-12-31T01:11:27.252Z,69.19
2018-12-31T01:14:00.767Z,69.15
2018-12-31T01:16:34.410Z,69.26
2018-12-31T01:19:07.939Z,69.06
2018-12-31T01:21:41.476Z,69.06
2018-12-31T01:24:14.912Z,69.18
2018-12-31T01:26:48.382Z,69.16
2018-12-31T01:29:21.898Z,69.19
2018-12-31T01:31:55.519Z,68.99
2018-12-31T01:34:29.040Z,69.05
2018-12-31T01:37:02.669Z,69.10
2018-12-31T01:39:36.197Z,69.14
2018-12-31T01:42:09.811Z,69.36
2018-12-31T01:44:43.328Z,69.22
2018-12-31T01:47:16.880Z,69.26
2018-12-31T01:49:50.462Z,69.37
2018-12-31T01:52:23.930Z,69.44
2018-12-31T01:54:57.459Z,69.66
2018-12-31T01:57:31.184Z,69.37
2018-12-31T02:00:05.711Z,69.49
2018-12-31T02:02:39.208Z,69.54
2018-12-31T02:05:12.719Z,69.62
2018-12-31T02:07:46.359Z,69.53
2018-12-31T02:10:19.998Z,69.48
2018-12-31T02:12:53.636Z,69.23
2018-12-31T02:15:27.084Z,69.47
2018-12-31T02:18:00.759Z,69.31
2018-12-31T02:20:34.264Z,69.34
2018-12-31T02:23:07.960Z,69.44
2018-12-31T02:25:41.461Z,69.48
2018-12-31T02:28:15.010Z,69.35
2018-12-31T02:30:48.808Z,69.42
2018-12-31T02:33:22.363Z,69.25
2018-12-31T02:35:55.869Z,69.28
2018-12-31T02:38:29.416Z,69.20
2018-12-31T02:41:02.991Z,69.01
2018-12-31T02:43:36.617Z,69.09
2018-12-31T02:46:10.131Z,69.33
2018-12-31T02:48:43.808Z,69.38
2018-12-31T02:51:17.306Z,69.39
2018-12-31T02:53:50.779Z,69.40
2018-12-31T02:56:24.289Z,69.44
2018-12-31T02:58:57.940Z,69.38
2018-12-31T03:01:31.450Z,69.05
2018-12-31T03:04:05.082Z,69.11
2018-12-31T03:06:38.596Z,68.95
2018-12-31T03:09:12.149Z,68.79
2018-12-31T03:11:45.681Z,69.21
2018-12-31T03:14:19.222Z,69.33
2018-12-31T03:16:52.721Z,69.22
2018-12-31T03:19:26.356Z,69.19
2018-12-31T03:21:59.786Z,69.35
2018-12-31T03:24:33.347Z,69.35
2018-12-31T03:27:07.818Z,69.27
2018-12-31T03:29:41.358Z,69.24
2018-12-31T03:32:14.890Z,69.33
2018-12-31T03:34:48.340Z,68.97
2018-12-31T03:37:21.975Z,69.28
2018-12-31T03:39:55.536Z,69.32
2018-12-31T03:42:28.973Z,69.34
2018-12-31T03:45:02.601Z,69.07
2018-12-31T03:47:36.173Z,69.15
2018-12-31T03:50:18.006Z,69.22
2018-12-31T03:52:51.527Z,69.16
2018-12-31T03:55:25.090Z,69.07
2018-12-31T03:57:58.591Z,69.16
2018-12-31T04:00:32.290Z,69.21
2018-12-31T04:03:05.800Z,68.81
2018-12-31T04:05:39.435Z,69.33
2018-12-31T04:08:13.062Z,69.14
2018-12-31T04:10:46.620Z,69.07
2018-12-31T04:13:20.138Z,68.96
2018-12-31T04:15:53.703Z,68.85
2018-12-31T04:18:27.200Z,68.98
2018-12-31T04:21:00.748Z,69.22
2018-12-31T04:23:34.196Z,69.24
2018-12-31T04:26:07.660Z,69.24
2018-12-31T04:28:41.203Z,69.14
2018-12-31T04:31:14.768Z,69.14
2018-12-31T04:33:48.280Z,69.10
2018-12-31T04:36:21.917Z,69.15
2018-12-31T04:38:55.353Z,69.04
2018-12-31T04:41:28.895Z,69.01
2018-12-31T04:44:02.468Z,69.11
2018-12-31T04:46:36.028Z,69.12
2018-12-31T04:49:09.646Z,69.11
2018-12-31T04:51:43.202Z,69.12
2018-12-31T04:54:16.706Z,68.94
2018-12-31T04:56:50.319Z,68.95
2018-12-31T04:59:23.768Z,68.94
2018-12-31T05:01:57.371Z,68.94
2018-12-31T05:04:30.948Z,69.00
2018-12-31T05:07:04.491Z,68.95
2018-12-31T05:09:37.999Z,69.08
2018-12-31T05:12:11.824Z,68.81
2018-12-31T05:14:45.362Z,68.98
2018-12-31T05:17:18.903Z,69.09
2018-12-31T05:19:52.357Z,68.96
2018-12-31T05:22:25.912Z,68.82
2018-12-31T05:24:59.523Z,69.04
2018-12-31T05:27:33.113Z,69.09
2018-12-31T05:30:06.682Z,69.07
2018-12-31T05:32:40.248Z,69.14
2018-12-31T05:35:13.678Z,69.20
2018-12-31T05:37:47.312Z,69.08
2018-12-31T05:40:20.814Z,69.30
2018-12-31T05:42:54.276Z,69.17
2018-12-31T05:45:27.785Z,69.11
2018-12-31T05:48:01.331Z,69.03
2018-12-31T05:50:34.840Z,68.97
2018-12-31T05:53:08.468Z,69.11
2018-12-31T05:55:41.976Z,69.21
2018-12-31T05:58:15.550Z,69.10
2018-12-31T06:00:48.970Z,69.10
2018-12-31T06:03:22.642Z,69.09
2018-12-31T06:05:56.223Z,69.09
2018-12-31T06:08:29.775Z,69.07
2018-12-31T06:11:03.314Z,69.18
2018-12-31T06:13:36.869Z,69.12
2018-12-31T06:16:10.385Z,69.24
2018-12-31T06:18:44.021Z,68.71
2018-12-31T06:21:17.600Z,69.21
2018-12-31T06:23:51.175Z,69.22
2018-12-31T06:26:24.683Z,69.32
2018-12-31T06:28:58.217Z,69.17
2018-12-31T06:31:31.741Z,69.13
2018-12-31T06:34:05.383Z,69.31
2018-12-31T06:36:38.996Z,68.88
2018-12-31T06:39:12.709Z,69.29
2018-12-31T06:41:46.220Z,69.28
2018-12-31T06:44:19.754Z,69.37
2018-12-31T06:46:53.323Z,69.31
2018-12-31T06:49:26.962Z,69.20
2018-12-31T06:52:00.539Z,69.20
2018-12-31T06:54:34.190Z,69.24
2018-12-31T06:57:07.764Z,69.24
2018-12-31T06:59:41.359Z,69.21
2018-12-31T07:02:14.880Z,69.08
2018-12-31T07:04:48.368Z,69.23
2018-12-31T07:07:21.806Z,69.28
2018-12-31T07:09:55.429Z,69.14
2018-12-31T07:12:29.003Z,69.32
2018-12-31T07:15:02.654Z,69.29
2018-12-31T07:17:36.112Z,69.41
2018-12-31T07:20:09.762Z,69.51
2018-12-31T07:22:43.314Z,69.59
2018-12-31T07:25:16.793Z,69.57
2018-12-31T07:27:50.371Z,69.49
2018-12-31T07:30:23.933Z,69.58
2018-12-31T07:32:57.472Z,69.55
2018-12-31T07:35:31.144Z,69.56
2018-12-31T07:38:04.607Z,69.42
2018-12-31T07:40:38.074Z,69.33
2018-12-31T07:43:11.589Z,69.41
2018-12-31T07:45:45.149Z,69.36
2018-12-31T07:48:18.658Z,69.35
2018-12-31T07:50:52.201Z,69.43
2018-12-31T07:53:25.709Z,69.39
2018-12-31T07:55:59.252Z,69.49
2018-12-31T07:58:32.677Z,69.47
2018-12-31T08:01:06.211Z,69.54
2018-12-31T08:03:39.655Z,69.54
2018-12-31T08:06:13.194Z,69.50
2018-12-31T08:08:46.646Z,69.53
2018-12-31T08:11:20.209Z,69.59
2018-12-31T08:13:53.718Z,69.59
2018-12-31T08:16:27.258Z,69.50
2018-12-31T08:19:00.789Z,69.45
2018-12-31T08:21:34.344Z,69.41
2018-12-31T08:24:07.845Z,69.40
2018-12-31T08:26:41.420Z,69.53
2018-12-31T08:29:15.019Z,69.64
2018-12-31T08:31:48.623Z,69.61
2018-12-31T08:34:22.060Z,69.60
2018-12-31T08:36:55.598Z,69.48
2018-12-31T08:39:29.094Z,69.34
2018-12-31T08:42:02.643Z,69.37
2018-12-31T08:44:36.618Z,69.38
2018-12-31T08:47:10.200Z,69.43
2018-12-31T08:49:43.762Z,69.30
2018-12-31T08:52:17.346Z,69.51
2018-12-31T08:54:50.964Z,69.49
2018-12-31T08:57:24.519Z,69.47
2018-12-31T08:59:58.086Z,69.53
2018-12-31T09:02:31.635Z,69.53
2018-12-31T09:05:05.649Z,69.41
2018-12-31T09:07:39.212Z,69.33
2018-12-31T09:10:12.692Z,69.41
2018-12-31T09:12:46.245Z,69.40
2018-12-31T09:15:19.688Z,69.52
2018-12-31T09:17:53.279Z,69.50
2018-12-31T09:20:28.428Z,69.31
2018-12-31T09:23:02.111Z,69.45
2018-12-31T09:25:35.712Z,69.64
2018-12-31T09:28:09.270Z,69.65
2018-12-31T09:30:42.850Z,69.68
2018-12-31T09:33:16.518Z,69.61
2018-12-31T09:35:50.030Z,69.62
2018-12-31T09:38:23.679Z,69.64
2018-12-31T09:40:57.185Z,69.84
2018-12-31T09:43:30.746Z,69.73
2018-12-31T09:46:04.258Z,69.69
2018-12-31T09:48:37.800Z,69.39
2018-12-31T09:51:11.468Z,69.32
2018-12-31T09:53:45.084Z,69.43
2018-12-31T09:56:18.593Z,69.59
2018-12-31T09:58:52.139Z,69.53
2018-12-31T10:01:25.685Z,69.53
2018-12-31T10:03:59.387Z,69.26
2018-12-31T10:06:32.965Z,69.33
2018-12-31T10:09:07.006Z,69.56
2018-12-31T10:11:40.375Z,69.66
2018-12-31T10:14:13.982Z,69.73
2018-12-31T10:16:47.559Z,69.72
2018-12-31T10:19:21.018Z,69.71
2018-12-31T10:21:54.546Z,69.70
2018-12-31T10:24:28.248Z,69.78
2018-12-31T10:27:03.516Z,69.50
2018-12-31T10:29:37.141Z,69.53
2018-12-31T10:32:10.816Z,69.49
2018-12-31T10:34:44.289Z,69.67
2018-12-31T10:37:17.859Z,69.74
2018-12-31T10:39:51.400Z,69.68
2018-12-31T10:42:24.932Z,69.61
2018-12-31T10:44:58.489Z,69.40
2018-12-31T10:47:31.993Z,69.72
2018-12-31T10:50:05.931Z,69.73
2018-12-31T10:52:39.503Z,69.77
2018-12-31T10:55:13.109Z,69.52
2018-12-31T10:57:46.569Z,69.54
2018-12-31T11:00:21.754Z,69.66
2018-12-31T11:02:55.297Z,69.78
2018-12-31T11:05:30.473Z,69.75
2018-12-31T11:08:03.983Z,69.68
2018-12-31T11:10:37.448Z,69.59
2018-12-31T11:13:11.050Z,69.64
2018-12-31T11:15:44.618Z,69.48
2018-12-31T11:18:18.133Z,69.52
2018-12-31T11:20:51.746Z,69.37
2018-12-31T11:23:25.316Z,69.38
2018-12-31T11:25:58.875Z,69.43
2018-12-31T11:28:32.378Z,69.37
2018-12-31T11:31:05.926Z,69.33
2018-12-31T11:33:39.515Z,69.33
2018-12-31T11:36:13.121Z,69.43
2018-12-31T11:38:46.635Z,69.21
2018-12-31T11:41:20.118Z,69.01
2018-12-31T11:43:53.544Z,69.27
2018-12-31T11:46:27.095Z,69.37
2018-12-31T11:49:00.522Z,69.29
2018-12-31T11:51:34.117Z,69.40
2018-12-31T11:54:07.621Z,69.25
2018-12-31T11:56:41.091Z,69.31
2018-12-31T11:59:14.612Z,69.41
2018-12-31T12:01:48.227Z,69.33
2018-12-31T12:04:21.649Z,69.33
2018-12-31T12:06:55.212Z,69.31
2018-12-31T12:09:28.643Z,69.45
2018-12-31T12:12:02.196Z,69.47
2018-12-31T12:14:35.784Z,69.42
2018-12-31T12:17:09.475Z,69.41
2018-12-31T12:19:42.968Z,69.11
2018-12-31T12:22:16.435Z,69.31
2018-12-31T12:24:50.437Z,69.32
2018-12-31T12:27:24.163Z,69.05
2018-12-31T12:29:57.694Z,69.12
2018-12-31T12:32:31.300Z,69.26
2018-12-31T12:35:05.105Z,69.22
2018-12-31T12:37:38.649Z,69.08
2018-12-31T12:40:12.187Z,69.08
2018-12-31T12:42:45.737Z,69.13
2018-12-31T12:45:19.169Z,69.00
2018-12-31T12:47:52.712Z,69.02
2018-12-31T12:50:26.218Z,69.26
2018-12-31T12:52:59.841Z,68.90
2018-12-31T12:55:33.429Z,69.14
2018-12-31T12:58:07.134Z,69.05
2018-12-31T13:00:40.793Z,69.26
2018-12-31T13:03:14.614Z,69.32
2018-12-31T13:05:48.049Z,68.85
2018-12-31T13:08:21.681Z,69.18
2018-12-31T13:10:55.179Z,69.27
2018-12-31T13:13:28.813Z,69.21
2018-12-31T13:16:02.331Z,69.24
2018-12-31T13:18:35.931Z,69.17
2018-12-31T13:21:09.445Z,69.09
2018-12-31T13:23:43.093Z,69.17
2018-12-31T13:26:16.610Z,69.16
2018-12-31T13:28:50.229Z,69.22
2018-12-31T13:31:24.039Z,69.24
2018-12-31T13:33:57.660Z,69.14
2018-12-31T13:36:31.172Z,69.15
2018-12-31T13:39:06.049Z,69.14
2018-12-31T13:41:39.681Z,69.13
2018-12-31T13:44:13.217Z,69.17
2018-12-31T13:46:46.737Z,69.33
2018-12-31T13:49:20.350Z,69.17
2018-12-31T13:51:53.800Z,69.24
2018-12-31T13:54:27.266Z,69.13
2018-12-31T13:57:00.781Z,69.36
2018-12-31T13:59:34.551Z,69.31
2018-12-31T14:02:08.074Z,69.32
2018-12-31T14:04:41.771Z,69.19
2018-12-31T14:07:15.296Z,69.25
2018-12-31T14:09:48.844Z,69.21
2018-12-31T14:12:22.319Z,69.16
2018-12-31T14:14:55.949Z,69.17
2018-12-31T14:17:31.335Z,69.09
2018-12-31T14:20:06.731Z,69.16
2018-12-31T14:22:40.164Z,69.28
2018-12-31T14:25:13.777Z,69.11
2018-12-31T14:27:47.696Z,69.24
2018-12-31T14:30:21.268Z,69.39
2018-12-31T14:32:54.776Z,69.33
2018-12-31T14:35:28.325Z,69.23
2018-12-31T14:38:01.879Z,69.20
2018-12-31T14:40:35.439Z,69.33
2018-12-31T14:43:08.977Z,69.28
2018-12-31T14:45:44.488Z,69.25
2018-12-31T14:48:18.003Z,69.34
2018-12-31T14:50:51.749Z,69.17
2018-12-31T14:53:25.180Z,69.24
2018-12-31T14:55:59.174Z,69.36
2018-12-31T14:58:32.684Z,69.41
2018-12-31T15:01:06.308Z,69.24
2018-12-31T15:03:39.878Z,69.26
2018-12-31T15:06:13.366Z,69.17
2018-12-31T15:08:46.938Z,69.46
2018-12-31T15:11:20.485Z,69.34
2018-12-31T15:13:54.087Z,69.34
2018-12-31T15:16:27.655Z,69.42
2018-12-31T15:19:02.211Z,69.51
2018-12-31T15:21:35.810Z,69.54
2018-12-31T15:24:09.503Z,69.51
2018-12-31T15:26:43.148Z,69.42
2018-12-31T15:29:16.658Z,69.44
2018-12-31T15:31:50.219Z,69.33
2018-12-31T15:34:24.025Z,69.46
2018-12-31T15:36:57.608Z,69.54
2018-12-31T15:39:31.115Z,69.46
2018-12-31T15:42:04.811Z,69.52
2018-12-31T15:44:38.241Z,69.59
2018-12-31T15:47:11.895Z,69.55
2018-12-31T15:49:45.491Z,69.45
2018-12-31T15:52:19.035Z,69.59
2018-12-31T15:54:52.482Z,69.55
2018-12-31T15:57:26.038Z,69.69
2018-12-31T15:59:59.550Z,69.79
2018-12-31T16:02:33.134Z,69.61
2018-12-31T16:05:07.268Z,69.41
2018-12-31T16:07:45.588Z,69.39
2018-12-31T16:10:16.325Z,69.47
2018-12-31T16:12:50.450Z,69.44
2018-12-31T16:15:24.035Z,69.43
2018-12-31T16:17:57.673Z,69.55
2018-12-31T16:20:31.182Z,69.36
2018-12-31T16:23:04.766Z,69.67
2018-12-31T16:25:38.286Z,69.56
2018-12-31T16:28:11.833Z,69.60
2018-12-31T16:30:45.276Z,69.49
2018-12-31T16:33:19.556Z,69.57
2018-12-31T16:35:53.145Z,69.50
2018-12-31T16:38:26.888Z,69.57
2018-12-31T16:41:00.400Z,69.43
2018-12-31T16:43:34.034Z,69.22
2018-12-31T16:46:07.609Z,69.44
2018-12-31T16:48:41.150Z,69.52
2018-12-31T16:51:15.125Z,69.54
2018-12-31T16:53:48.749Z,69.32
2018-12-31T16:56:22.199Z,69.53
2018-12-31T16:58:55.774Z,69.39
2018-12-31T17:01:29.372Z,69.44
2018-12-31T17:04:04.185Z,69.48
2018-12-31T17:06:37.720Z,69.50
2018-12-31T17:09:11.327Z,69.32
2018-12-31T17:11:44.848Z,69.28
2018-12-31T17:14:18.482Z,69.30
2018-12-31T17:16:52.084Z,69.41
2018-12-31T17:19:25.551Z,69.30
2018-12-31T17:21:59.063Z,69.37
2018-12-31T17:24:32.609Z,69.00
2018-12-31T17:27:06.210Z,69.24
2018-12-31T17:29:39.831Z,69.22
2018-12-31T17:32:13.279Z,69.23
2018-12-31T17:34:46.738Z,69.22
2018-12-31T17:37:20.250Z,69.16
2018-12-31T17:39:54.117Z,69.14
2018-12-31T17:42:27.552Z,68.96
2018-12-31T17:45:01.180Z,69.27
2018-12-31T17:47:34.715Z,69.21
2018-12-31T17:50:08.245Z,68.89
2018-12-31T17:52:45.892Z,69.12
2018-12-31T17:55:19.620Z,69.13
2018-12-31T17:57:53.359Z,69.27
2018-12-31T18:00:26.913Z,69.11
2018-12-31T18:03:00.422Z,68.97
2018-12-31T18:05:34.052Z,68.90
2018-12-31T18:08:07.859Z,68.93
2018-12-31T18:10:41.432Z,68.92
2018-12-31T18:13:15.019Z,69.10
2018-12-31T18:15:48.687Z,68.86
2018-12-31T18:18:22.492Z,68.94
2018-12-31T18:20:56.128Z,68.99
2018-12-31T18:23:29.775Z,69.05
2018-12-31T18:26:03.316Z,69.01
2018-12-31T18:28:36.819Z,69.00
2018-12-31T18:31:10.456Z,68.93
2018-12-31T18:33:43.965Z,69.12
2018-12-31T18:36:17.553Z,69.08
2018-12-31T18:39:07.225Z,67.92
2018-12-31T18:41:40.842Z,68.88
2018-12-31T18:44:14.473Z,68.77
2018-12-31T18:46:48.093Z,68.58
2018-12-31T18:49:21.627Z,68.44
2018-12-31T18:51:55.298Z,68.52
2018-12-31T18:54:29.012Z,68.56
2018-12-31T18:57:02.562Z,68.39
2018-12-31T18:59:36.143Z,68.50
2018-12-31T19:02:09.782Z,68.32
2018-12-31T19:04:43.380Z,68.33
2018-12-31T19:07:17.107Z,68.60
2018-12-31T19:09:50.623Z,68.62
2018-12-31T19:12:24.292Z,68.51
2018-12-31T19:14:57.811Z,68.58
2018-12-31T19:17:31.430Z,68.36
2018-12-31T19:20:06.222Z,68.48
2018-12-31T19:22:40.000Z,68.41
2018-12-31T19:25:13.686Z,68.36
2018-12-31T19:27:47.421Z,68.27
2018-12-31T19:30:20.961Z,68.41
2018-12-31T19:32:54.846Z,68.44
2018-12-31T19:35:28.554Z,68.40
2018-12-31T19:38:02.219Z,68.41
2018-12-31T19:40:35.659Z,68.58
2018-12-31T19:43:09.587Z,68.37
2018-12-31T19:45:43.175Z,68.39
2018-12-31T19:48:16.896Z,68.47
2018-12-31T19:50:50.379Z,68.60
2018-12-31T19:53:24.105Z,68.67
2018-12-31T19:55:57.661Z,68.60
2018-12-31T19:58:31.118Z,68.73
2018-12-31T20:01:06.323Z,68.79
2018-12-31T20:03:40.143Z,68.76
2018-12-31T20:06:13.765Z,68.66
2018-12-31T20:08:47.300Z,68.63
2018-12-31T20:11:20.936Z,68.78
2018-12-31T20:13:54.474Z,68.63
2018-12-31T20:16:27.984Z,68.57
2018-12-31T20:19:01.462Z,68.60
2018-12-31T20:21:35.040Z,68.72
2018-12-31T20:24:08.581Z,68.66
2018-12-31T20:26:42.166Z,68.66
2018-12-31T20:29:15.628Z,68.53
2018-12-31T20:31:49.067Z,68.65
2018-12-31T20:34:22.605Z,68.36
2018-12-31T20:36:56.108Z,68.53
2018-12-31T20:39:29.735Z,68.59
2018-12-31T20:42:03.249Z,68.46
2018-12-31T20:44:36.872Z,68.53
2018-12-31T20:47:10.404Z,68.55
2018-12-31T20:49:44.011Z,68.66
2018-12-31T20:52:17.595Z,68.53
2018-12-31T20:54:51.132Z,68.47
2018-12-31T20:57:24.637Z,68.51
2018-12-31T20:59:58.178Z,68.55
2018-12-31T21:02:31.729Z,68.56
2018-12-31T21:05:05.777Z,68.44
2018-12-31T21:07:39.290Z,68.42
2018-12-31T21:10:12.850Z,68.47
2018-12-31T21:12:46.358Z,67.66
2018-12-31T21:15:19.902Z,68.34
2018-12-31T21:17:53.474Z,68.21
2018-12-31T21:20:27.091Z,68.12
2018-12-31T21:23:01.084Z,68.04
2018-12-31T21:25:34.767Z,67.92
2018-12-31T21:28:08.325Z,68.00
2018-12-31T21:30:41.941Z,68.04
2018-12-31T21:33:15.837Z,68.05
2018-12-31T21:35:49.456Z,67.79
2018-12-31T21:38:23.847Z,68.09
2018-12-31T21:40:57.398Z,68.05
2018-12-31T21:43:31.686Z,68.03
2018-12-31T21:46:05.314Z,66.71
2018-12-31T21:48:38.853Z,68.36
2018-12-31T21:51:12.492Z,68.00
2018-12-31T21:53:59.477Z,68.35
2018-12-31T21:56:33.034Z,68.57
2018-12-31T21:59:06.548Z,68.66
2018-12-31T22:01:40.035Z,68.72
2018-12-31T22:04:33.729Z,68.71
2018-12-31T22:07:17.505Z,68.75
2018-12-31T22:09:51.055Z,68.61
2018-12-31T22:12:24.614Z,68.29
2018-12-31T22:14:58.117Z,68.46
2018-12-31T22:17:32.092Z,68.18
2018-12-31T22:20:08.585Z,67.95
2018-12-31T22:22:42.453Z,67.61
2018-12-31T22:25:16.342Z,67.61
2018-12-31T22:27:50.367Z,67.05
2018-12-31T22:30:23.968Z,67.31
2018-12-31T22:32:57.501Z,67.29
2018-12-31T22:35:31.161Z,66.73
2018-12-31T22:38:04.891Z,67.14
2018-12-31T22:40:38.404Z,67.08
2018-12-31T22:43:11.872Z,67.08
2018-12-31T22:45:45.639Z,67.01
2018-12-31T22:48:19.263Z,66.92
2018-12-31T22:50:52.765Z,66.79
2018-12-31T22:53:26.373Z,66.71
2018-12-31T22:55:59.896Z,66.84
2018-12-31T22:58:33.495Z,66.84
2018-12-31T23:01:07.294Z,66.96
2018-12-31T23:03:40.911Z,67.09
2018-12-31T23:06:14.422Z,67.30
2018-12-31T23:08:47.888Z,67.46
2018-12-31T23:11:21.356Z,67.30
2018-12-31T23:13:54.918Z,67.57
2018-12-31T23:16:28.425Z,67.74
2018-12-31T23:19:01.903Z,67.66
2018-12-31T23:24:35.468Z,67.51
2018-12-31T23:27:08.970Z,67.42
2018-12-31T23:29:42.441Z,67.49
2018-12-31T23:32:15.966Z,67.36
2018-12-31T23:34:49.516Z,66.48
2018-12-31T23:37:23.116Z,67.30
2018-12-31T23:39:56.612Z,67.13
2018-12-31T23:42:30.211Z,67.20
2018-12-31T23:48:03.569Z,67.03
2018-12-31T23:50:37.047Z,66.40
2018-12-31T23:53:10.647Z,67.07
2018-12-31T23:55:44.392Z,66.83
2018-12-31T23:58:17.903Z,66.78
